Terminal Aerodrome Forecast
Issued by NWS Boston, MA

Home | Current Version | Previous Version | Text Only | Print | Product List | Glossary On
Versions: 1 2 3 4 5 6 7 8 9 10 11 12 13 14 15 16 17 18 19 20 21 22 23 24 25 26 27 28 29 30 31 32 33 34 35 36 37 38 39 40 41 42 43 44 45 46 47 48 49
000
FTUS41 KBOX 260531
TAFBOS
TAF
KBOS 260531Z 2606/2712 03009KT 2SM SHRA BR OVC003 WS020/14035KT
     FM261000 08008KT 1SM RA BR OVC003
     FM261200 09009KT 1SM -SHRA BR OVC003
     FM261700 10007KT P6SM VCSH OVC010
     FM270300 VRB03KT 1 1/2SM -DZ BR OVC003
     FM271000 VRB03KT 3SM BR OVC003=

USA.gov is the U.S. government's official web portal to all federal, state and local government web resources and services.